createdAt,value
2019-05-28T00:02:07.239Z,16.56
2019-05-28T00:04:39.202Z,16.55
2019-05-28T00:07:10.754Z,16.58
2019-05-28T00:09:42.287Z,16.60
2019-05-28T00:12:13.867Z,16.52
2019-05-28T00:14:45.397Z,16.47
2019-05-28T00:17:17.288Z,16.38
2019-05-28T00:19:48.744Z,16.45
2019-05-28T00:22:20.792Z,16.57
2019-05-28T00:24:55.190Z,16.78
2019-05-28T00:27:26.811Z,16.83
2019-05-28T00:29:58.384Z,16.65
2019-05-28T00:32:30.133Z,16.65
2019-05-28T00:35:01.737Z,16.60
2019-05-28T00:37:33.886Z,16.65
2019-05-28T00:40:06.021Z,16.63
2019-05-28T00:42:37.686Z,16.52
2019-05-28T00:45:10.175Z,16.61
2019-05-28T00:47:41.936Z,16.53
2019-05-28T00:50:14.344Z,16.55
2019-05-28T00:52:46.136Z,16.53
2019-05-28T00:55:19.144Z,16.48
2019-05-28T00:57:52.622Z,16.48
2019-05-28T01:00:49.219Z,16.44
2019-05-28T01:03:20.975Z,16.42
2019-05-28T01:05:52.834Z,16.43
2019-05-28T01:08:24.533Z,16.49
2019-05-28T01:10:56.043Z,16.52
2019-05-28T01:13:27.816Z,16.55
2019-05-28T01:15:59.539Z,16.58
2019-05-28T01:18:31.305Z,16.60
2019-05-28T01:21:02.833Z,16.56
2019-05-28T01:23:34.367Z,16.51
2019-05-28T01:26:05.915Z,16.41
2019-05-28T01:28:37.469Z,16.34
2019-05-28T01:31:09.007Z,16.28
2019-05-28T01:33:40.758Z,16.26
2019-05-28T01:36:12.300Z,16.25
2019-05-28T01:38:43.855Z,16.24
2019-05-28T01:41:15.928Z,16.23
2019-05-28T01:43:47.773Z,16.24
2019-05-28T01:46:19.402Z,16.24
2019-05-28T01:48:52.048Z,16.26
2019-05-28T01:51:23.991Z,16.28
2019-05-28T01:53:55.562Z,16.27
2019-05-28T01:56:27.139Z,16.20
2019-05-28T01:59:00.706Z,16.10
2019-05-28T02:01:32.274Z,15.96
2019-05-28T02:04:04.480Z,15.89
2019-05-28T02:06:36.062Z,15.94
2019-05-28T02:09:09.222Z,15.90
2019-05-28T02:11:40.860Z,15.84
2019-05-28T02:14:12.700Z,15.95
2019-05-28T02:16:45.827Z,15.94
2019-05-28T02:19:17.410Z,15.95
2019-05-28T02:21:48.922Z,16.02
2019-05-28T02:24:20.495Z,16.06
2019-05-28T02:26:52.149Z,16.08
2019-05-28T02:29:25.505Z,16.20
2019-05-28T02:31:57.061Z,16.13
2019-05-28T02:34:28.779Z,16.04
2019-05-28T02:37:00.408Z,16.00
2019-05-28T02:39:33.547Z,15.92
2019-05-28T02:42:05.249Z,15.89
2019-05-28T02:44:36.797Z,15.82
2019-05-28T02:47:08.470Z,15.86
2019-05-28T02:49:39.982Z,15.91
2019-05-28T02:52:11.853Z,15.93
2019-05-28T02:54:43.365Z,15.96
2019-05-28T02:57:16.413Z,15.85
2019-05-28T02:59:50.152Z,15.84
2019-05-28T03:02:25.411Z,15.88
2019-05-28T03:04:59.576Z,15.92
2019-05-28T03:07:33.532Z,15.91
2019-05-28T03:10:06.720Z,15.95
2019-05-28T03:12:38.269Z,15.92
2019-05-28T03:15:09.898Z,15.96
2019-05-28T03:17:44.259Z,15.93
2019-05-28T03:20:16.335Z,15.98
2019-05-28T03:22:50.655Z,16.01
2019-05-28T03:25:23.590Z,16.06
2019-05-28T03:27:55.548Z,16.24
2019-05-28T03:30:27.103Z,16.16
2019-05-28T03:32:58.824Z,16.19
2019-05-28T03:35:30.606Z,16.32
2019-05-28T03:38:03.879Z,16.38
2019-05-28T03:40:46.102Z,16.43
2019-05-28T03:43:17.673Z,16.35
2019-05-28T03:45:49.411Z,16.20
2019-05-28T03:48:22.624Z,16.19
2019-05-28T03:50:54.582Z,16.24
2019-05-28T03:53:26.147Z,16.06
2019-05-28T03:55:57.935Z,16.22
2019-05-28T03:58:29.490Z,16.25
2019-05-28T04:01:01.107Z,16.21
2019-05-28T04:03:32.840Z,16.14
2019-05-28T04:06:06.427Z,16.22
2019-05-28T04:08:37.985Z,16.19
2019-05-28T04:11:10.429Z,16.11
2019-05-28T04:13:42.050Z,16.15
2019-05-28T04:16:13.595Z,16.13
2019-05-28T04:18:48.220Z,16.10
2019-05-28T04:21:19.747Z,16.15
2019-05-28T04:23:52.030Z,16.14
2019-05-28T04:26:23.979Z,16.16
2019-05-28T04:28:56.050Z,16.23
2019-05-28T04:31:27.697Z,16.20
2019-05-28T04:33:59.283Z,16.06
2019-05-28T04:36:30.923Z,15.96
2019-05-28T04:39:02.459Z,15.84
2019-05-28T04:41:34.410Z,15.81
2019-05-28T04:44:05.935Z,15.61
2019-05-28T04:46:37.403Z,15.51
2019-05-28T04:49:09.138Z,15.53
2019-05-28T04:51:40.818Z,15.32
2019-05-28T04:54:12.388Z,15.31
2019-05-28T04:56:43.916Z,15.39
2019-05-28T04:59:15.749Z,15.41
2019-05-28T05:01:47.280Z,15.38
2019-05-28T05:04:19.311Z,15.35
2019-05-28T05:06:50.835Z,15.38
2019-05-28T05:09:25.008Z,15.35
2019-05-28T05:11:56.568Z,15.32
2019-05-28T05:14:28.199Z,15.32
2019-05-28T05:16:59.847Z,15.32
2019-05-28T05:19:31.446Z,15.33
2019-05-28T05:22:03.302Z,15.25
2019-05-28T05:24:34.834Z,15.29
2019-05-28T05:27:06.390Z,15.28
2019-05-28T05:29:39.534Z,15.27
2019-05-28T05:32:12.831Z,15.20
2019-05-28T05:34:45.749Z,15.29
2019-05-28T05:37:17.303Z,15.33
2019-05-28T05:39:49.387Z,15.30
2019-05-28T05:42:21.116Z,15.30
2019-05-28T05:44:56.314Z,15.16
2019-05-28T05:47:27.842Z,15.05
2019-05-28T05:50:01.775Z,15.03
2019-05-28T05:52:33.258Z,14.97
2019-05-28T05:55:05.178Z,14.91
2019-05-28T05:57:38.547Z,15.03
2019-05-28T06:00:11.803Z,15.00
2019-05-28T06:02:43.434Z,15.02
2019-05-28T06:05:15.014Z,14.99
2019-05-28T06:07:46.709Z,15.05
2019-05-28T06:10:18.525Z,15.13
2019-05-28T06:12:49.995Z,14.81
2019-05-28T06:15:21.563Z,14.70
2019-05-28T06:17:53.321Z,14.80
2019-05-28T06:20:25.122Z,14.93
2019-05-28T06:22:56.646Z,14.96
2019-05-28T06:25:28.068Z,14.92
2019-05-28T06:27:59.568Z,14.84
2019-05-28T06:30:31.101Z,14.93
2019-05-28T06:33:02.655Z,14.94
2019-05-28T06:35:34.370Z,14.94
2019-05-28T06:38:05.975Z,14.84
2019-05-28T06:40:37.637Z,14.91
2019-05-28T06:43:09.119Z,15.00
2019-05-28T06:45:40.795Z,15.02
2019-05-28T06:48:12.313Z,14.99
2019-05-28T06:50:43.977Z,15.01
2019-05-28T06:53:15.570Z,15.12
2019-05-28T06:55:48.162Z,15.16
2019-05-28T06:58:37.537Z,15.21
2019-05-28T07:00:54.018Z,15.17
2019-05-28T07:03:25.469Z,15.15
2019-05-28T07:06:07.284Z,15.18
2019-05-28T07:08:30.448Z,15.24
2019-05-28T07:11:02.013Z,15.31
2019-05-28T07:13:33.631Z,15.34
2019-05-28T07:16:06.363Z,15.39
2019-05-28T07:18:37.979Z,15.39
2019-05-28T07:21:09.502Z,15.33
2019-05-28T07:23:41.311Z,15.33
2019-05-28T07:26:12.783Z,15.33
2019-05-28T07:28:44.570Z,15.33
2019-05-28T07:31:16.052Z,15.35
2019-05-28T07:33:47.685Z,15.30
2019-05-28T07:36:19.121Z,15.34
2019-05-28T07:38:50.745Z,15.33
2019-05-28T07:41:22.362Z,15.44
2019-05-28T07:43:53.949Z,14.90
2019-05-28T07:46:25.848Z,15.16
2019-05-28T07:48:57.385Z,15.13
2019-05-28T07:51:28.953Z,15.14
2019-05-28T07:54:00.503Z,15.02
2019-05-28T07:56:32.196Z,14.99
2019-05-28T07:59:03.726Z,15.07
2019-05-28T08:01:35.734Z,14.90
2019-05-28T08:04:07.206Z,14.72
2019-05-28T08:06:54.137Z,14.34
2019-05-28T08:09:14.846Z,14.62
2019-05-28T08:11:46.378Z,14.77
2019-05-28T08:14:17.905Z,14.77
2019-05-28T08:16:52.756Z,14.86
2019-05-28T08:19:22.773Z,14.56
2019-05-28T08:21:54.411Z,14.76
2019-05-28T08:24:26.010Z,13.97
2019-05-28T08:26:57.508Z,14.38
2019-05-28T08:29:29.413Z,14.32
2019-05-28T08:32:00.919Z,14.37
2019-05-28T08:34:33.565Z,14.49
2019-05-28T08:37:06.667Z,14.52
2019-05-28T08:39:38.788Z,14.68
2019-05-28T08:42:10.226Z,14.74
2019-05-28T08:44:42.076Z,14.80
2019-05-28T08:47:13.750Z,14.93
2019-05-28T08:49:45.588Z,14.97
2019-05-28T08:52:19.638Z,14.97
2019-05-28T08:54:52.260Z,15.12
2019-05-28T08:57:24.063Z,15.15
2019-05-28T08:59:55.523Z,15.09
2019-05-28T09:02:28.842Z,15.17
2019-05-28T09:05:00.626Z,14.89
2019-05-28T09:07:32.155Z,14.95
2019-05-28T09:10:04.561Z,15.09
2019-05-28T09:12:36.109Z,15.13
2019-05-28T09:15:09.241Z,15.08
2019-05-28T09:17:40.717Z,15.23
2019-05-28T09:20:12.548Z,15.24
2019-05-28T09:22:44.306Z,15.30
2019-05-28T09:25:15.943Z,15.35
2019-05-28T09:27:47.591Z,15.44
2019-05-28T09:30:21.003Z,15.37
2019-05-28T09:32:52.516Z,15.32
2019-05-28T09:35:41.247Z,15.44
2019-05-28T09:37:58.764Z,15.45
2019-05-28T09:40:48.436Z,15.45
2019-05-28T09:43:03.707Z,15.43
2019-05-28T09:45:35.226Z,15.50
2019-05-28T09:48:07.321Z,15.45
2019-05-28T09:50:38.815Z,15.56
2019-05-28T09:53:11.177Z,15.48
2019-05-28T09:55:42.683Z,15.55
2019-05-28T09:58:14.375Z,15.59
2019-05-28T10:00:58.105Z,15.59
2019-05-28T10:03:21.802Z,15.69
2019-05-28T10:06:02.039Z,15.66
2019-05-28T10:08:26.584Z,15.66
2019-05-28T10:10:58.043Z,15.67
2019-05-28T10:13:38.991Z,15.62
2019-05-28T10:16:02.905Z,15.57
2019-05-28T10:18:34.463Z,15.58
2019-05-28T10:21:17.657Z,15.55
2019-05-28T10:23:39.296Z,15.60
2019-05-28T10:26:11.027Z,15.61
2019-05-28T10:28:42.573Z,15.67
2019-05-28T10:31:14.257Z,15.74
2019-05-28T10:33:45.798Z,15.82
2019-05-28T10:36:34.327Z,15.81
2019-05-28T10:38:50.968Z,15.88
2019-05-28T10:41:24.104Z,15.96
2019-05-28T10:43:55.697Z,15.97
2019-05-28T10:46:29.199Z,16.04
2019-05-28T10:49:00.732Z,16.04
2019-05-28T10:51:32.362Z,16.07
2019-05-28T10:54:03.903Z,16.13
2019-05-28T10:56:35.487Z,16.13
2019-05-28T10:59:07.405Z,16.18
2019-05-28T11:01:39.133Z,16.01
2019-05-28T11:04:11.074Z,16.06
2019-05-28T11:06:51.936Z,15.81
2019-05-28T11:09:17.472Z,16.34
2019-05-28T11:11:49.012Z,16.30
2019-05-28T11:14:20.744Z,16.41
2019-05-28T11:16:52.270Z,16.41
2019-05-28T11:19:24.618Z,16.35
2019-05-28T11:21:56.160Z,16.36
2019-05-28T11:24:27.723Z,16.30
2019-05-28T11:26:59.284Z,16.64
2019-05-28T11:29:30.807Z,16.61
2019-05-28T11:32:02.319Z,16.83
2019-05-28T11:34:34.127Z,17.00
2019-05-28T11:37:09.454Z,17.20
2019-05-28T11:39:38.805Z,17.14
2019-05-28T11:42:10.449Z,17.36
2019-05-28T11:44:41.986Z,17.53
2019-05-28T11:47:15.077Z,17.66
2019-05-28T11:49:46.514Z,17.59
2019-05-28T11:52:18.122Z,17.83
2019-05-28T11:54:49.686Z,17.98
2019-05-28T11:57:21.376Z,18.18
2019-05-28T11:59:52.910Z,18.34
2019-05-28T12:02:24.849Z,18.47
2019-05-28T12:04:56.782Z,18.42
2019-05-28T12:07:29.589Z,18.47
2019-05-28T12:10:01.205Z,18.23
2019-05-28T12:12:32.896Z,18.29
2019-05-28T12:15:04.640Z,18.27
2019-05-28T12:17:42.312Z,18.36
2019-05-28T12:20:12.973Z,18.16
2019-05-28T12:22:45.018Z,18.18
2019-05-28T12:25:17.418Z,18.19
2019-05-28T12:27:49.166Z,18.17
2019-05-28T12:30:24.234Z,18.15
2019-05-28T12:32:56.070Z,18.21
2019-05-28T12:35:30.339Z,18.35
2019-05-28T12:38:02.069Z,18.33
2019-05-28T12:40:47.341Z,18.43
2019-05-28T12:43:06.982Z,18.47
2019-05-28T12:45:38.698Z,18.45
2019-05-28T12:48:13.062Z,18.32
2019-05-28T12:50:43.619Z,18.36
2019-05-28T12:53:15.493Z,18.56
2019-05-28T12:55:46.990Z,18.60
2019-05-28T12:58:18.888Z,18.68
2019-05-28T13:00:50.407Z,18.82
2019-05-28T13:03:21.976Z,18.76
2019-05-28T13:05:53.664Z,18.81
2019-05-28T13:08:26.757Z,18.69
2019-05-28T13:10:58.589Z,18.80
2019-05-28T13:13:30.635Z,18.62
2019-05-28T13:16:03.708Z,18.65
2019-05-28T13:18:35.232Z,18.68
2019-05-28T13:21:06.747Z,18.65
2019-05-28T13:23:38.241Z,18.66
2019-05-28T13:26:09.719Z,18.51
2019-05-28T13:28:41.180Z,18.57
2019-05-28T13:31:12.841Z,18.58
2019-05-28T13:33:44.350Z,18.65
2019-05-28T13:36:16.297Z,18.65
2019-05-28T13:38:47.837Z,18.86
2019-05-28T13:41:19.345Z,18.97
2019-05-28T13:43:50.892Z,18.76
2019-05-28T13:46:22.668Z,19.01
2019-05-28T13:48:55.247Z,19.02
2019-05-28T13:51:27.045Z,19.09
2019-05-28T13:53:58.555Z,19.12
2019-05-28T13:56:30.391Z,19.21
2019-05-28T13:59:01.935Z,19.29
2019-05-28T14:01:33.955Z,19.34
2019-05-28T14:04:06.210Z,19.28
2019-05-28T14:06:43.902Z,19.06
2019-05-28T14:09:12.281Z,19.14
2019-05-28T14:11:43.867Z,19.17
2019-05-28T14:14:15.389Z,19.16
2019-05-28T14:16:46.959Z,19.27
2019-05-28T14:19:19.762Z,19.39
2019-05-28T14:21:51.785Z,18.61
2019-05-28T14:24:23.364Z,18.87
2019-05-28T14:26:55.468Z,18.75
2019-05-28T14:29:28.216Z,18.70
2019-05-28T14:31:59.915Z,18.62
2019-05-28T14:34:31.487Z,18.55
2019-05-28T14:37:03.115Z,18.75
2019-05-28T14:39:41.212Z,18.99
2019-05-28T14:42:08.704Z,19.16
2019-05-28T14:44:43.350Z,19.16
2019-05-28T14:47:14.819Z,19.28
2019-05-28T14:49:46.443Z,19.36
2019-05-28T14:52:18.048Z,19.46
2019-05-28T14:54:50.035Z,19.42
2019-05-28T14:57:21.657Z,19.16
2019-05-28T14:59:55.101Z,19.05
2019-05-28T15:02:26.834Z,19.06
2019-05-28T15:04:58.419Z,19.17
2019-05-28T15:07:32.262Z,19.29
2019-05-28T15:10:03.862Z,19.17
2019-05-28T15:12:35.844Z,19.09
2019-05-28T15:15:10.138Z,18.93
2019-05-28T15:17:42.183Z,18.91
2019-05-28T15:20:14.754Z,18.18
2019-05-28T15:22:46.575Z,18.51
2019-05-28T15:25:18.480Z,18.63
2019-05-28T15:27:51.042Z,18.52
2019-05-28T15:30:24.006Z,18.53
2019-05-28T15:32:55.662Z,18.37
2019-05-28T15:35:27.377Z,18.49
2019-05-28T15:37:59.352Z,18.18
2019-05-28T15:40:31.012Z,18.15
2019-05-28T15:43:06.102Z,18.12
2019-05-28T15:45:36.374Z,18.14
2019-05-28T15:48:07.983Z,18.12
2019-05-28T15:50:40.049Z,18.15
2019-05-28T15:53:12.368Z,18.12
2019-05-28T15:55:45.175Z,18.14
2019-05-28T15:58:16.734Z,18.07
2019-05-28T16:00:48.413Z,18.16
2019-05-28T16:03:19.995Z,17.97
2019-05-28T16:05:51.866Z,17.98
2019-05-28T16:08:23.524Z,17.93
2019-05-28T16:10:55.905Z,17.92
2019-05-28T16:13:29.282Z,17.92
2019-05-28T16:16:00.762Z,17.82
2019-05-28T16:18:32.399Z,17.93
2019-05-28T16:21:04.300Z,18.02
2019-05-28T16:23:35.871Z,17.90
2019-05-28T16:26:07.557Z,17.65
2019-05-28T16:28:39.230Z,17.52
2019-05-28T16:31:12.962Z,17.52
2019-05-28T16:33:45.535Z,17.62
2019-05-28T16:36:17.175Z,17.60
2019-05-28T16:38:48.790Z,17.47
2019-05-28T16:41:20.725Z,17.46
2019-05-28T16:43:52.481Z,17.43
2019-05-28T16:46:24.952Z,17.41
2019-05-28T16:48:56.642Z,17.39
2019-05-28T16:51:28.487Z,17.43
2019-05-28T16:54:17.809Z,17.52
2019-05-28T16:56:33.255Z,17.53
2019-05-28T16:59:04.857Z,17.45
2019-05-28T17:01:37.493Z,17.39
2019-05-28T17:04:09.498Z,17.47
2019-05-28T17:06:41.051Z,17.42
2019-05-28T17:09:12.626Z,17.35
2019-05-28T17:11:44.251Z,17.20
2019-05-28T17:14:15.829Z,17.34
2019-05-28T17:16:47.355Z,17.44
2019-05-28T17:19:19.061Z,17.24
2019-05-28T17:21:50.801Z,17.22
2019-05-28T17:24:23.890Z,17.26
2019-05-28T17:26:55.655Z,17.34
2019-05-28T17:29:27.270Z,17.18
2019-05-28T17:31:59.797Z,17.15
2019-05-28T17:34:31.413Z,17.15
2019-05-28T17:37:02.948Z,17.04
2019-05-28T17:39:35.553Z,16.95
2019-05-28T17:42:07.128Z,16.96
2019-05-28T17:44:41.982Z,17.00
2019-05-28T17:47:14.037Z,17.02
2019-05-28T17:49:46.003Z,16.97
2019-05-28T17:52:17.680Z,16.98
2019-05-28T17:54:49.343Z,17.01
2019-05-28T17:57:22.687Z,17.03
2019-05-28T17:59:54.515Z,17.05
2019-05-28T18:02:26.111Z,17.07
2019-05-28T18:04:59.363Z,17.14
2019-05-28T18:07:31.038Z,17.13
2019-05-28T18:10:02.645Z,17.03
2019-05-28T18:12:34.340Z,17.07
2019-05-28T18:15:06.617Z,17.11
2019-05-28T18:17:38.379Z,17.05
2019-05-28T18:20:10.145Z,17.00
2019-05-28T18:22:41.931Z,16.93
2019-05-28T18:25:13.774Z,16.83
2019-05-28T18:27:45.499Z,16.79
2019-05-28T18:30:21.092Z,16.82
2019-05-28T18:32:52.767Z,16.67
2019-05-28T18:35:24.588Z,16.77
2019-05-28T18:38:03.100Z,16.75
2019-05-28T18:40:33.039Z,16.63
2019-05-28T18:43:04.831Z,16.64
2019-05-28T18:45:36.557Z,16.64
2019-05-28T18:48:09.234Z,16.60
2019-05-28T18:50:40.876Z,16.67
2019-05-28T18:53:12.450Z,16.60
2019-05-28T18:55:44.144Z,16.59
2019-05-28T18:58:18.898Z,16.53
2019-05-28T19:00:50.662Z,16.51
2019-05-28T19:03:22.191Z,16.51
2019-05-28T19:05:54.516Z,16.49
2019-05-28T19:08:26.234Z,16.44
2019-05-28T19:10:59.210Z,16.36
2019-05-28T19:13:30.801Z,16.40
2019-05-28T19:16:02.634Z,16.30
2019-05-28T19:18:34.231Z,16.17
2019-05-28T19:21:05.917Z,16.15
2019-05-28T19:23:37.472Z,16.15
2019-05-28T19:26:09.285Z,16.12
2019-05-28T19:28:40.927Z,16.09
2019-05-28T19:31:12.726Z,16.07
2019-05-28T19:33:44.428Z,15.98
2019-05-28T19:36:16.589Z,15.90
2019-05-28T19:38:49.276Z,15.95
2019-05-28T19:41:20.901Z,15.92
2019-05-28T19:43:52.496Z,15.90
2019-05-28T19:46:24.197Z,15.87
2019-05-28T19:48:55.873Z,15.86
2019-05-28T19:51:27.405Z,15.86
2019-05-28T19:53:59.144Z,15.72
2019-05-28T19:56:30.738Z,15.70
2019-05-28T19:59:02.397Z,15.68
2019-05-28T20:01:34.072Z,15.65
2019-05-28T20:04:05.861Z,15.63
2019-05-28T20:06:37.422Z,15.57
2019-05-28T20:09:09.663Z,15.52
2019-05-28T20:11:41.461Z,15.53
2019-05-28T20:14:13.003Z,15.48
2019-05-28T20:16:45.119Z,15.42
2019-05-28T20:19:17.252Z,15.44
2019-05-28T20:21:52.079Z,15.44
2019-05-28T20:24:22.115Z,15.41
2019-05-28T20:26:53.972Z,15.39
2019-05-28T20:29:25.760Z,15.34
2019-05-28T20:31:58.771Z,15.33
2019-05-28T20:34:30.880Z,15.32
2019-05-28T20:37:03.611Z,15.30
2019-05-28T20:39:35.374Z,15.26
2019-05-28T20:42:08.184Z,15.25
2019-05-28T20:44:40.030Z,15.19
2019-05-28T20:47:12.178Z,15.13
2019-05-28T20:49:45.172Z,15.14
2019-05-28T20:52:16.967Z,15.10
2019-05-28T20:54:48.880Z,15.09
2019-05-28T20:57:20.705Z,15.03
2019-05-28T20:59:52.263Z,14.99
2019-05-28T21:02:24.304Z,14.95
2019-05-28T21:04:56.765Z,14.95
2019-05-28T21:07:28.493Z,14.89
2019-05-28T21:10:00.037Z,14.87
2019-05-28T21:12:43.229Z,14.86
2019-05-28T21:15:05.942Z,14.83
2019-05-28T21:17:37.519Z,14.78
2019-05-28T21:20:10.601Z,14.75
2019-05-28T21:22:42.851Z,14.70
2019-05-28T21:25:14.591Z,14.73
2019-05-28T21:27:46.210Z,14.66
2019-05-28T21:30:18.247Z,14.70
2019-05-28T21:32:50.665Z,14.67
2019-05-28T21:35:24.243Z,14.59
2019-05-28T21:37:57.198Z,14.53
2019-05-28T21:40:28.851Z,14.49
2019-05-28T21:43:07.610Z,14.49
2019-05-28T21:45:33.733Z,14.44
2019-05-28T21:48:06.955Z,14.37
2019-05-28T21:50:38.579Z,14.36
2019-05-28T21:53:10.223Z,14.32
2019-05-28T21:55:43.782Z,14.34
2019-05-28T21:58:15.409Z,14.26
2019-05-28T22:00:58.449Z,14.22
2019-05-28T22:03:30.383Z,14.22
2019-05-28T22:06:03.651Z,14.19
2019-05-28T22:08:35.197Z,14.09
2019-05-28T22:11:07.970Z,14.12
2019-05-28T22:13:39.928Z,14.11
2019-05-28T22:16:11.521Z,14.09
2019-05-28T22:18:44.204Z,14.08
2019-05-28T22:21:15.817Z,14.03
2019-05-28T22:23:47.637Z,14.06
2019-05-28T22:26:19.190Z,14.02
2019-05-28T22:28:50.722Z,13.98
2019-05-28T22:31:24.117Z,13.91
2019-05-28T22:33:56.806Z,13.88
2019-05-28T22:36:28.661Z,13.84
2019-05-28T22:39:08.946Z,13.80
2019-05-28T22:41:42.417Z,13.81
2019-05-28T22:44:13.968Z,13.76
2019-05-28T22:46:45.807Z,13.74
2019-05-28T22:49:17.346Z,13.72
2019-05-28T22:51:49.007Z,13.71
2019-05-28T22:54:20.530Z,13.67
2019-05-28T22:56:52.349Z,13.64
2019-05-28T22:59:24.311Z,13.61
2019-05-28T23:01:55.813Z,13.59
2019-05-28T23:04:27.368Z,13.62
2019-05-28T23:06:59.181Z,13.58
2019-05-28T23:09:32.028Z,13.52
2019-05-28T23:12:03.816Z,13.49
2019-05-28T23:14:35.570Z,13.49
2019-05-28T23:17:08.308Z,13.47
2019-05-28T23:19:40.076Z,13.45
2019-05-28T23:22:11.837Z,13.39
2019-05-28T23:24:43.631Z,13.38
2019-05-28T23:27:15.196Z,13.36
2019-05-28T23:29:46.761Z,13.32
2019-05-28T23:32:21.153Z,13.28
2019-05-28T23:34:56.086Z,13.23
2019-05-28T23:37:26.209Z,13.18
2019-05-28T23:39:57.950Z,13.13
2019-05-28T23:42:29.834Z,13.11
2019-05-28T23:45:01.391Z,13.11
2019-05-28T23:47:32.941Z,13.12
2019-05-28T23:50:04.514Z,13.16
2019-05-28T23:52:36.069Z,13.18
2019-05-28T23:55:08.009Z,13.18
2019-05-28T23:57:39.535Z,13.15
